createdAt,value
2018-07-23T00:00:16.298Z,57.43
2018-07-23T00:01:16.276Z,57.53
2018-07-23T00:02:16.268Z,57.34
2018-07-23T00:03:16.253Z,57.53
2018-07-23T00:04:16.326Z,57.53
2018-07-23T00:05:16.248Z,57.14
2018-07-23T00:06:16.243Z,56.95
2018-07-23T00:07:16.224Z,57.53
2018-07-23T00:08:16.231Z,57.82
2018-07-23T00:09:16.214Z,57.82
2018-07-23T00:10:16.217Z,57.34
2018-07-23T00:11:16.208Z,57.14
2018-07-23T00:12:16.209Z,57.82
2018-07-23T00:13:16.219Z,58.01
2018-07-23T00:14:16.223Z,58.11
2018-07-23T00:15:16.184Z,57.34
2018-07-23T00:16:16.168Z,57.62
2018-07-23T00:17:16.165Z,57.53
2018-07-23T00:18:16.191Z,57.72
2018-07-23T00:19:16.171Z,58.20
2018-07-23T00:20:16.152Z,57.53
2018-07-23T00:21:16.140Z,57.34
2018-07-23T00:22:16.133Z,57.92
2018-07-23T00:23:16.157Z,58.40
2018-07-23T00:24:16.176Z,58.01
2018-07-23T00:25:16.110Z,58.11
2018-07-23T00:26:16.100Z,58.59
2018-07-23T00:27:16.105Z,57.82
2018-07-23T00:28:16.097Z,58.11
2018-07-23T00:29:16.083Z,57.82
2018-07-23T00:30:16.082Z,57.82
2018-07-23T00:31:16.080Z,57.92
2018-07-23T00:32:16.066Z,57.62
2018-07-23T00:33:16.057Z,57.53
2018-07-23T00:34:16.083Z,57.62
2018-07-23T00:35:16.078Z,57.82
2018-07-23T00:36:16.028Z,57.43
2018-07-23T00:37:16.028Z,57.34
2018-07-23T00:38:16.026Z,57.60
2018-07-23T00:39:16.018Z,57.40
2018-07-23T00:40:16.035Z,57.69
2018-07-23T00:41:16.006Z,58.08
2018-07-23T00:42:15.998Z,58.27
2018-07-23T00:43:15.986Z,58.27
2018-07-23T00:44:16.005Z,57.98
2018-07-23T00:45:15.980Z,57.89
2018-07-23T00:46:15.957Z,58.56
2018-07-23T00:47:15.998Z,57.89
2018-07-23T00:48:15.951Z,57.98
2018-07-23T00:49:15.954Z,58.17
2018-07-23T00:50:15.984Z,57.98
2018-07-23T00:51:15.943Z,58.37
2018-07-23T00:52:15.930Z,58.37
2018-07-23T00:53:15.916Z,58.75
2018-07-23T00:54:15.951Z,58.85
2018-07-23T00:55:15.910Z,58.47
2018-07-23T00:56:15.891Z,58.95
2018-07-23T00:57:15.899Z,58.92
2018-07-23T00:58:15.883Z,58.72
2018-07-23T00:59:15.913Z,58.53
2018-07-23T01:00:15.899Z,58.65
2018-07-23T01:01:15.866Z,58.53
2018-07-23T01:02:15.872Z,58.72
2018-07-23T01:03:15.851Z,59.04
2018-07-23T01:04:15.841Z,59.59
2018-07-23T01:05:15.842Z,59.78
2018-07-23T01:06:15.869Z,59.78
2018-07-23T01:07:15.821Z,59.69
2018-07-23T01:08:15.815Z,59.59
2018-07-23T01:09:15.805Z,59.11
2018-07-23T01:10:15.796Z,59.20
2018-07-23T01:11:15.867Z,58.85
2018-07-23T01:12:15.781Z,59.04
2018-07-23T01:13:15.787Z,58.85
2018-07-23T01:14:15.774Z,58.75
2018-07-23T01:15:15.762Z,59.04
2018-07-23T01:16:15.749Z,59.04
2018-07-23T01:17:15.752Z,58.95
2018-07-23T01:18:15.739Z,58.75
2018-07-23T01:19:15.740Z,59.14
2018-07-23T01:20:15.720Z,58.95
2018-07-23T01:21:15.711Z,58.75
2018-07-23T01:22:15.763Z,58.85
2018-07-23T01:23:15.706Z,59.14
2018-07-23T01:24:15.701Z,59.14
2018-07-23T01:25:15.691Z,58.95
2018-07-23T01:26:15.673Z,58.95
2018-07-23T01:27:15.679Z,59.04
2018-07-23T01:28:15.879Z,58.65
2018-07-23T01:29:15.658Z,58.63
2018-07-23T01:30:15.663Z,58.82
2018-07-23T01:31:15.650Z,59.04
2018-07-23T01:32:15.639Z,59.20
2018-07-23T01:33:15.703Z,59.01
2018-07-23T01:34:15.625Z,59.01
2018-07-23T01:35:15.617Z,58.72
2018-07-23T01:36:15.614Z,59.01
2018-07-23T01:37:15.612Z,59.20
2018-07-23T01:38:15.599Z,58.63
2018-07-23T01:39:15.599Z,58.63
2018-07-23T01:40:15.581Z,58.72
2018-07-23T01:41:15.567Z,58.92
2018-07-23T01:42:15.575Z,58.72
2018-07-23T01:43:15.565Z,58.63
2018-07-23T01:44:15.580Z,58.63
2018-07-23T01:45:15.549Z,59.08
2018-07-23T01:46:15.537Z,59.20
2018-07-23T01:47:15.522Z,59.17
2018-07-23T01:48:15.531Z,58.60
2018-07-23T01:49:15.526Z,58.89
2018-07-23T01:50:15.517Z,58.79
2018-07-23T01:51:15.509Z,58.70
2018-07-23T01:52:15.501Z,58.79
2018-07-23T01:53:15.489Z,58.70
2018-07-23T01:54:15.497Z,59.08
2018-07-23T01:55:15.498Z,59.08
2018-07-23T01:56:15.525Z,59.47
2018-07-23T01:57:15.459Z,59.47
2018-07-23T01:58:15.459Z,59.66
2018-07-23T01:59:15.441Z,59.56
2018-07-23T02:00:15.441Z,60.04
2018-07-23T02:01:15.431Z,59.85
2018-07-23T02:02:15.434Z,59.47
2018-07-23T02:03:15.415Z,59.85
2018-07-23T02:04:15.416Z,59.56
2018-07-23T02:05:15.402Z,59.56
2018-07-23T02:06:15.392Z,60.04
2018-07-23T02:07:15.455Z,60.24
2018-07-23T02:08:15.377Z,60.52
2018-07-23T02:09:15.378Z,60.72
2018-07-23T02:10:15.357Z,60.14
2018-07-23T02:11:15.363Z,60.24
2018-07-23T02:12:15.356Z,60.14
2018-07-23T02:13:15.374Z,60.69
2018-07-23T02:14:15.338Z,60.33
2018-07-23T02:15:15.326Z,61.10
2018-07-23T02:16:15.322Z,60.72
2018-07-23T02:17:15.305Z,60.39
2018-07-23T02:18:15.310Z,60.30
2018-07-23T02:19:15.302Z,60.14
2018-07-23T02:20:15.284Z,60.04
2018-07-23T02:21:15.287Z,60.24
2018-07-23T02:22:15.275Z,60.04
2018-07-23T02:23:15.272Z,60.24
2018-07-23T02:24:15.292Z,60.91
2018-07-23T02:25:15.239Z,60.49
2018-07-23T02:26:15.296Z,60.04
2018-07-23T02:27:15.234Z,60.42
2018-07-23T02:28:15.221Z,59.94
2018-07-23T02:29:15.213Z,60.21
2018-07-23T02:30:15.214Z,60.30
2018-07-23T02:31:15.206Z,60.30
2018-07-23T02:32:15.233Z,60.01
2018-07-23T02:33:15.176Z,60.21
2018-07-23T02:34:15.196Z,60.21
2018-07-23T02:35:15.192Z,60.01
2018-07-23T02:36:15.170Z,60.21
2018-07-23T02:37:15.150Z,59.92
2018-07-23T02:38:15.171Z,60.21
2018-07-23T02:39:15.172Z,59.92
2018-07-23T02:40:15.136Z,60.88
2018-07-23T02:41:15.126Z,60.59
2018-07-23T02:42:15.124Z,60.88
2018-07-23T02:43:15.113Z,60.39
2018-07-23T02:44:15.172Z,60.30
2018-07-23T02:45:15.085Z,60.49
2018-07-23T02:46:15.086Z,60.39
2018-07-23T02:47:15.077Z,60.30
2018-07-23T02:48:15.076Z,60.11
2018-07-23T02:49:15.064Z,60.78
2018-07-23T02:50:15.109Z,60.39
2018-07-23T02:51:15.046Z,60.30
2018-07-23T02:52:15.051Z,60.78
2018-07-23T02:53:15.033Z,61.07
2018-07-23T02:54:15.020Z,62.03
2018-07-23T02:55:15.012Z,61.71
2018-07-23T02:56:15.011Z,62.13
2018-07-23T02:57:14.997Z,61.94
2018-07-23T02:58:14.988Z,62.13
2018-07-23T02:59:14.990Z,61.46
2018-07-23T03:00:15.015Z,61.46
2018-07-23T03:01:14.963Z,61.26
2018-07-23T03:02:14.967Z,61.46
2018-07-23T03:03:14.958Z,61.26
2018-07-23T03:04:14.936Z,61.36
2018-07-23T03:05:14.968Z,61.74
2018-07-23T03:06:14.920Z,61.36
2018-07-23T03:07:14.919Z,61.55
2018-07-23T03:08:14.925Z,61.26
2018-07-23T03:09:14.905Z,61.36
2018-07-23T03:10:14.927Z,61.36
2018-07-23T03:11:14.887Z,61.26
2018-07-23T03:12:14.931Z,61.26
2018-07-23T03:13:14.901Z,62.51
2018-07-23T03:14:14.862Z,64.79
2018-07-23T03:15:14.910Z,63.92
2018-07-23T03:16:14.860Z,64.22
2018-07-23T03:17:14.839Z,63.83
2018-07-23T03:18:14.843Z,62.96
2018-07-23T03:19:14.836Z,64.40
2018-07-23T03:20:14.831Z,64.22
2018-07-23T03:21:14.841Z,64.89
2018-07-23T03:22:14.848Z,64.22
2018-07-23T03:23:14.802Z,64.31
2018-07-23T03:24:14.807Z,63.73
2018-07-23T03:25:14.787Z,63.15
2018-07-23T03:26:14.785Z,63.15
2018-07-23T03:27:14.828Z,63.35
2018-07-23T03:28:14.761Z,63.15
2018-07-23T03:29:14.749Z,62.96
2018-07-23T03:30:14.757Z,62.77
2018-07-23T03:31:14.735Z,62.48
2018-07-23T03:32:14.734Z,62.38
2018-07-23T03:33:14.741Z,62.68
2018-07-23T03:34:14.705Z,62.68
2018-07-23T03:35:14.703Z,62.96
2018-07-23T03:36:14.697Z,62.19
2018-07-23T03:37:14.683Z,63.06
2018-07-23T03:38:14.703Z,62.38
2018-07-23T03:39:14.680Z,62.58
2018-07-23T03:40:14.652Z,62.68
2018-07-23T03:41:14.662Z,62.77
2018-07-23T03:42:14.653Z,62.68
2018-07-23T03:43:14.666Z,62.58
2018-07-23T03:44:14.639Z,62.00
2018-07-23T03:45:14.626Z,62.58
2018-07-23T03:46:14.615Z,62.29
2018-07-23T03:47:14.612Z,62.48
2018-07-23T03:48:14.594Z,62.68
2018-07-23T03:49:14.601Z,62.68
2018-07-23T03:50:14.587Z,62.38
2018-07-23T03:51:14.574Z,63.06
2018-07-23T03:52:14.560Z,62.77
2018-07-23T03:53:14.587Z,62.58
2018-07-23T03:54:14.545Z,62.29
2018-07-23T03:55:14.545Z,63.15
2018-07-23T03:56:14.542Z,62.68
2018-07-23T03:57:14.528Z,62.48
2018-07-23T03:58:14.595Z,63.12
2018-07-23T03:59:14.508Z,62.84
2018-07-23T04:00:14.501Z,62.84
2018-07-23T04:01:14.492Z,63.02
2018-07-23T04:02:14.501Z,63.32
2018-07-23T04:03:14.470Z,63.02
2018-07-23T04:04:14.500Z,63.12
2018-07-23T04:05:14.453Z,63.12
2018-07-23T04:06:14.455Z,63.12
2018-07-23T04:07:14.441Z,62.84
2018-07-23T04:08:14.442Z,62.74
2018-07-23T04:09:14.454Z,63.32
2018-07-23T04:10:14.438Z,62.84
2018-07-23T04:11:14.412Z,62.93
2018-07-23T04:12:14.402Z,63.12
2018-07-23T04:13:14.382Z,63.22
2018-07-23T04:14:14.390Z,63.02
2018-07-23T04:15:14.408Z,62.84
2018-07-23T04:16:14.361Z,63.41
2018-07-23T04:17:14.374Z,63.12
2018-07-23T04:18:14.351Z,63.32
2018-07-23T04:19:14.340Z,63.12
2018-07-23T04:20:14.355Z,63.02
2018-07-23T04:21:14.347Z,63.12
2018-07-23T04:22:14.316Z,63.41
2018-07-23T04:23:14.300Z,63.41
2018-07-23T04:24:14.310Z,63.32
2018-07-23T04:25:14.297Z,63.02
2018-07-23T04:26:14.310Z,63.12
2018-07-23T04:27:14.282Z,63.60
2018-07-23T04:28:14.269Z,63.02
2018-07-23T04:29:14.253Z,63.12
2018-07-23T04:30:14.257Z,63.35
2018-07-23T04:31:14.274Z,62.84
2018-07-23T04:32:14.257Z,62.74
2018-07-23T04:33:14.222Z,63.35
2018-07-23T04:34:14.207Z,62.77
2018-07-23T04:35:14.205Z,62.87
2018-07-23T04:36:14.203Z,63.06
2018-07-23T04:37:14.224Z,62.84
2018-07-23T04:38:14.184Z,62.68
2018-07-23T04:39:14.176Z,63.06
2018-07-23T04:40:14.162Z,62.87
2018-07-23T04:41:14.158Z,62.87
2018-07-23T04:42:14.197Z,62.93
2018-07-23T04:43:14.144Z,63.02
2018-07-23T04:44:14.135Z,63.15
2018-07-23T04:45:14.153Z,63.32
2018-07-23T04:46:14.118Z,63.41
2018-07-23T04:47:14.149Z,63.32
2018-07-23T04:48:14.089Z,63.41
2018-07-23T04:49:14.102Z,62.84
2018-07-23T04:50:14.082Z,62.74
2018-07-23T04:51:14.083Z,62.87
2018-07-23T04:52:14.134Z,62.93
2018-07-23T04:53:14.054Z,62.96
2018-07-23T04:54:14.048Z,62.68
2018-07-23T04:55:14.040Z,62.87
2018-07-23T04:56:14.038Z,63.22
2018-07-23T04:57:14.022Z,62.84
2018-07-23T04:58:14.034Z,63.79
2018-07-23T04:59:14.021Z,63.89
2018-07-23T05:00:14.003Z,64.47
2018-07-23T05:01:13.994Z,64.37
2018-07-23T05:02:13.983Z,64.56
2018-07-23T05:03:14.000Z,64.09
2018-07-23T05:04:13.972Z,64.18
2018-07-23T05:05:14.011Z,64.22
2018-07-23T05:06:13.953Z,64.22
2018-07-23T05:07:13.944Z,64.22
2018-07-23T05:08:13.936Z,64.40
2018-07-23T05:09:13.928Z,63.54
2018-07-23T05:10:13.919Z,63.83
2018-07-23T05:11:13.949Z,63.73
2018-07-23T05:12:13.910Z,64.12
2018-07-23T05:13:13.909Z,63.73
2018-07-23T05:14:13.884Z,63.64
2018-07-23T05:15:13.887Z,63.64
2018-07-23T05:16:13.901Z,63.45
2018-07-23T05:17:13.867Z,63.64
2018-07-23T05:18:13.851Z,62.87
2018-07-23T05:19:13.845Z,62.96
2018-07-23T05:20:13.847Z,63.54
2018-07-23T05:21:13.877Z,62.77
2018-07-23T05:22:13.823Z,63.15
2018-07-23T05:23:13.818Z,63.06
2018-07-23T05:24:13.794Z,63.54
2018-07-23T05:25:13.786Z,64.12
2018-07-23T05:26:13.844Z,63.83
2018-07-23T05:27:13.799Z,64.22
2018-07-23T05:28:13.775Z,63.73
2018-07-23T05:29:13.772Z,64.25
2018-07-23T05:30:13.756Z,64.12
2018-07-23T05:31:13.747Z,63.86
2018-07-23T05:32:14.020Z,64.25
2018-07-23T05:33:13.728Z,64.63
2018-07-23T05:34:13.729Z,64.73
2018-07-23T05:35:13.725Z,64.92
2018-07-23T05:36:13.721Z,65.11
2018-07-23T05:37:13.707Z,64.82
2018-07-23T05:38:13.736Z,64.15
2018-07-23T05:39:13.692Z,64.34
2018-07-23T05:40:13.681Z,64.43
2018-07-23T05:41:13.681Z,64.05
2018-07-23T05:42:13.662Z,64.05
2018-07-23T05:43:13.683Z,64.15
2018-07-23T05:44:13.672Z,64.34
2018-07-23T05:45:13.641Z,65.97
2018-07-23T05:46:13.631Z,66.36
2018-07-23T05:47:13.621Z,65.88
2018-07-23T05:48:13.608Z,64.73
2018-07-23T05:49:13.948Z,64.73
2018-07-23T05:50:13.588Z,64.25
2018-07-23T05:51:13.604Z,64.53
2018-07-23T05:52:13.589Z,64.95
2018-07-23T05:53:13.574Z,64.73
2018-07-23T05:54:13.559Z,64.92
2018-07-23T05:55:13.576Z,64.82
2018-07-23T05:56:13.543Z,64.86
2018-07-23T05:57:13.544Z,66.17
2018-07-23T05:58:13.541Z,65.81
2018-07-23T05:59:13.528Z,66.01
2018-07-23T06:00:13.560Z,65.63
2018-07-23T06:01:13.522Z,64.86
2018-07-23T06:02:13.517Z,64.56
2018-07-23T06:03:13.508Z,65.81
2018-07-23T06:04:13.501Z,65.63
2018-07-23T06:05:13.484Z,64.76
2018-07-23T06:06:13.490Z,64.95
2018-07-23T06:07:13.469Z,65.81
2018-07-23T06:08:13.461Z,65.43
2018-07-23T06:09:13.512Z,65.05
2018-07-23T06:10:13.446Z,65.05
2018-07-23T06:11:13.436Z,64.86
2018-07-23T06:12:13.432Z,64.08
2018-07-23T06:13:13.450Z,63.99
2018-07-23T06:14:13.422Z,64.28
2018-07-23T06:15:13.490Z,64.08
2018-07-23T06:16:13.404Z,64.08
2018-07-23T06:17:13.403Z,63.82
2018-07-23T06:18:13.388Z,64.40
2018-07-23T06:19:13.378Z,64.12
2018-07-23T06:20:13.375Z,63.82
2018-07-23T06:21:13.433Z,64.21
2018-07-23T06:22:13.358Z,64.40
2018-07-23T06:23:13.350Z,64.12
2018-07-23T06:24:13.343Z,64.21
2018-07-23T06:25:13.341Z,64.21
2018-07-23T06:26:13.318Z,64.12
2018-07-23T06:27:13.328Z,63.82
2018-07-23T06:28:13.314Z,64.05
2018-07-23T06:29:13.399Z,63.95
2018-07-23T06:30:13.311Z,63.44
2018-07-23T06:31:13.321Z,65.11
2018-07-23T06:32:13.293Z,64.73
2018-07-23T06:33:13.534Z,64.82
2018-07-23T06:34:13.270Z,66.46
2018-07-23T06:35:13.266Z,65.40
2018-07-23T06:36:13.256Z,65.01
2018-07-23T06:37:13.258Z,65.20
2018-07-23T06:38:13.244Z,65.11
2018-07-23T06:39:13.248Z,64.92
2018-07-23T06:40:13.233Z,65.88
2018-07-23T06:41:13.231Z,65.50
2018-07-23T06:42:13.214Z,64.92
2018-07-23T06:43:13.230Z,65.01
2018-07-23T06:44:13.224Z,64.92
2018-07-23T06:45:13.197Z,65.30
2018-07-23T06:46:13.185Z,65.01
2018-07-23T06:47:13.185Z,64.95
2018-07-23T06:48:13.178Z,64.63
2018-07-23T06:49:13.197Z,64.56
2018-07-23T06:50:13.158Z,64.86
2018-07-23T06:51:13.182Z,65.24
2018-07-23T06:52:13.145Z,64.47
2018-07-23T06:53:13.145Z,64.08
2018-07-23T06:54:13.137Z,64.56
2018-07-23T06:55:13.166Z,64.37
2018-07-23T06:56:13.156Z,64.37
2018-07-23T06:57:13.124Z,64.37
2018-07-23T06:58:13.112Z,64.28
2018-07-23T06:59:13.091Z,64.37
2018-07-23T07:00:13.110Z,63.70
2018-07-23T07:01:13.094Z,63.89
2018-07-23T07:02:13.075Z,64.56
2018-07-23T07:03:13.078Z,64.08
2018-07-23T07:04:13.067Z,63.70
2018-07-23T07:05:13.059Z,63.79
2018-07-23T07:06:13.448Z,63.79
2018-07-23T07:07:13.043Z,63.50
2018-07-23T07:08:13.047Z,63.31
2018-07-23T07:09:13.034Z,63.12
2018-07-23T07:10:13.031Z,63.63
2018-07-23T07:11:13.012Z,63.34
2018-07-23T07:12:13.077Z,63.24
2018-07-23T07:13:13.010Z,62.96
2018-07-23T07:14:13.005Z,63.34
2018-07-23T07:15:12.990Z,63.34
2018-07-23T07:16:12.993Z,63.54
2018-07-23T07:17:12.988Z,63.63
2018-07-23T07:18:13.011Z,63.24
2018-07-23T07:19:12.973Z,63.54
2018-07-23T07:20:12.988Z,63.34
2018-07-23T07:21:12.959Z,63.54
2018-07-23T07:22:12.959Z,63.44
2018-07-23T07:23:12.938Z,63.37
2018-07-23T07:24:12.936Z,62.99
2018-07-23T07:25:12.968Z,62.99
2018-07-23T07:26:12.920Z,63.24
2018-07-23T07:27:12.928Z,63.18
2018-07-23T07:28:12.924Z,62.99
2018-07-23T07:29:12.912Z,62.51
2018-07-23T07:30:12.933Z,62.79
2018-07-23T07:31:12.893Z,62.70
2018-07-23T07:32:12.897Z,62.99
2018-07-23T07:33:12.882Z,62.70
2018-07-23T07:34:12.881Z,62.31
2018-07-23T07:35:12.908Z,63.18
2018-07-23T07:36:12.867Z,62.22
2018-07-23T07:37:12.928Z,62.51
2018-07-23T07:38:12.866Z,62.99
2018-07-23T07:39:12.855Z,62.41
2018-07-23T07:40:12.843Z,62.99
2018-07-23T07:41:12.834Z,62.60
2018-07-23T07:42:12.832Z,63.18
2018-07-23T07:43:12.905Z,63.37
2018-07-23T07:44:12.816Z,62.89
2018-07-23T07:45:12.804Z,63.09
2018-07-23T07:46:12.804Z,62.51
2018-07-23T07:47:12.796Z,62.82
2018-07-23T07:48:12.804Z,62.99
2018-07-23T07:49:12.804Z,62.92
2018-07-23T07:50:12.780Z,63.12
2018-07-23T07:51:12.796Z,62.73
2018-07-23T07:52:12.769Z,63.31
2018-07-23T07:53:12.767Z,63.40
2018-07-23T07:54:12.750Z,62.54
2018-07-23T07:55:12.752Z,62.54
2018-07-23T07:56:12.782Z,62.54
2018-07-23T07:57:12.748Z,63.12
2018-07-23T07:58:12.732Z,62.54
2018-07-23T07:59:12.804Z,62.63
2018-07-23T08:00:12.726Z,62.73
2018-07-23T08:01:12.716Z,62.73
2018-07-23T08:02:12.703Z,62.44
2018-07-23T08:03:12.717Z,62.73
2018-07-23T08:04:12.732Z,62.73
2018-07-23T08:05:12.701Z,62.63
2018-07-23T08:06:12.747Z,62.44
2018-07-23T08:07:12.692Z,62.25
2018-07-23T08:08:12.693Z,62.05
2018-07-23T08:09:12.675Z,61.96
2018-07-23T08:10:12.676Z,62.15
2018-07-23T08:11:12.662Z,62.08
2018-07-23T08:12:12.726Z,62.57
2018-07-23T08:13:12.645Z,62.34
2018-07-23T08:14:12.647Z,62.73
2018-07-23T08:15:12.647Z,63.21
2018-07-23T08:16:12.643Z,63.02
2018-07-23T08:17:12.697Z,62.95
2018-07-23T08:18:12.616Z,62.76
2018-07-23T08:19:12.607Z,62.73
2018-07-23T08:20:12.622Z,62.54
2018-07-23T08:21:12.605Z,62.25
2018-07-23T08:22:12.637Z,62.66
2018-07-23T08:23:12.684Z,61.99
2018-07-23T08:24:12.581Z,61.99
2018-07-23T08:25:13.389Z,62.18
2018-07-23T08:26:12.804Z,62.05
2018-07-23T08:27:12.594Z,62.15
2018-07-23T08:28:12.575Z,62.08
2018-07-23T08:29:12.572Z,61.89
2018-07-23T08:30:12.559Z,62.08
2018-07-23T08:31:12.560Z,62.37
2018-07-23T08:32:12.661Z,62.37
2018-07-23T08:33:12.543Z,62.37
2018-07-23T08:34:12.539Z,61.99
2018-07-23T08:35:12.534Z,61.99
2018-07-23T08:36:12.523Z,61.99
2018-07-23T08:37:12.578Z,62.08
2018-07-23T08:38:12.529Z,61.99
2018-07-23T08:39:12.516Z,61.99
2018-07-23T08:40:12.508Z,62.08
2018-07-23T08:41:12.506Z,62.40
2018-07-23T08:42:12.527Z,62.31
2018-07-23T08:43:12.506Z,61.83
2018-07-23T08:44:12.555Z,62.12
2018-07-23T08:45:12.484Z,62.21
2018-07-23T08:46:12.787Z,62.70
2018-07-23T08:47:12.462Z,62.02
2018-07-23T08:48:12.455Z,61.73
2018-07-23T08:49:12.457Z,62.21
2018-07-23T08:50:12.510Z,61.83
2018-07-23T08:51:12.494Z,61.83
2018-07-23T08:52:12.460Z,61.86
2018-07-23T08:53:12.436Z,61.95
2018-07-23T08:54:12.428Z,62.01
2018-07-23T08:55:12.423Z,60.57
2018-07-23T08:56:12.461Z,60.24
2018-07-23T08:57:12.481Z,58.91
2018-07-23T08:58:12.420Z,57.29
2018-07-23T08:59:12.415Z,57.51
2018-07-23T09:00:12.409Z,56.37
2018-07-23T09:01:12.434Z,56.67
2018-07-23T09:02:12.402Z,56.11
2018-07-23T09:03:12.423Z,56.24
2018-07-23T09:04:12.410Z,54.71
2018-07-23T09:05:12.411Z,52.28
2018-07-23T09:06:12.421Z,51.92
2018-07-23T09:07:12.404Z,52.04
2018-07-23T09:08:12.461Z,52.75
2018-07-23T09:09:12.403Z,51.90
2018-07-23T09:10:12.403Z,51.61
2018-07-23T09:11:12.412Z,51.56
2018-07-23T09:12:12.601Z,50.78
2018-07-23T09:13:12.427Z,49.83
2018-07-23T09:14:12.493Z,50.92
2018-07-23T09:15:12.413Z,50.95
2018-07-23T09:16:12.445Z,49.71
2018-07-23T09:17:12.474Z,48.93
2018-07-23T09:18:12.415Z,48.46
2018-07-23T09:19:12.477Z,48.68
2018-07-23T09:20:12.433Z,48.90
2018-07-23T09:21:12.435Z,47.45
2018-07-23T09:22:12.486Z,44.81
2018-07-23T09:23:12.438Z,44.73
2018-07-23T09:24:12.484Z,41.99
2018-07-23T09:25:12.464Z,40.72
2018-07-23T09:26:12.973Z,43.07
2018-07-23T09:27:12.454Z,40.94
2018-07-23T09:28:12.455Z,43.29
2018-07-23T09:29:12.451Z,44.29
2018-07-23T09:30:12.495Z,43.31
2018-07-23T09:31:12.472Z,44.12
2018-07-23T09:32:12.602Z,44.62
2018-07-23T09:33:12.483Z,41.19
2018-07-23T09:34:12.501Z,38.04
2018-07-23T09:35:12.506Z,40.78
2018-07-23T09:36:12.500Z,42.65
2018-07-23T09:37:12.577Z,40.21
2018-07-23T09:38:12.530Z,41.88
2018-07-23T09:39:12.517Z,43.37
2018-07-23T09:40:12.517Z,43.08
2018-07-23T09:41:12.535Z,43.27
2018-07-23T09:42:12.530Z,43.41
2018-07-23T09:43:12.548Z,41.64
2018-07-23T09:44:12.538Z,40.27
2018-07-23T09:45:12.554Z,41.08
2018-07-23T09:46:12.564Z,41.59
2018-07-23T09:47:12.575Z,41.59
2018-07-23T09:48:12.636Z,41.61
2018-07-23T09:49:12.585Z,40.45
2018-07-23T09:50:12.589Z,39.48
2018-07-23T09:51:12.602Z,39.09
2018-07-23T09:52:12.601Z,39.89
2018-07-23T09:53:12.616Z,37.83
2018-07-23T09:54:12.664Z,37.35
2018-07-23T09:55:12.633Z,37.35
2018-07-23T09:56:12.635Z,38.02
2018-07-23T09:57:12.657Z,37.59
2018-07-23T09:58:12.666Z,39.05
2018-07-23T09:59:12.737Z,34.03
2018-07-23T10:00:12.674Z,31.09
2018-07-23T10:01:12.687Z,33.51
2018-07-23T10:02:12.684Z,35.85
2018-07-23T10:03:12.829Z,36.90
2018-07-23T10:04:12.704Z,38.54
2018-07-23T10:05:12.718Z,40.39
2018-07-23T10:06:12.704Z,37.25
2018-07-23T10:07:12.733Z,38.43
2018-07-23T10:08:12.723Z,38.04
2018-07-23T10:09:12.762Z,35.76
2018-07-23T10:10:12.731Z,37.23
2018-07-23T10:11:12.752Z,38.53
2018-07-23T10:12:12.891Z,36.57
2018-07-23T10:13:12.756Z,37.25
2018-07-23T10:14:12.791Z,37.66
2018-07-23T10:15:12.766Z,35.72
2018-07-23T10:16:12.781Z,34.54
2018-07-23T10:17:12.781Z,32.09
2018-07-23T10:18:12.793Z,33.15
2018-07-23T10:19:12.814Z,34.72
2018-07-23T10:20:12.801Z,36.27
2018-07-23T10:21:12.929Z,35.97
2018-07-23T10:22:12.867Z,35.76
2018-07-23T10:23:12.818Z,33.10
2018-07-23T10:24:12.817Z,35.24
2018-07-23T10:25:12.827Z,35.16
2018-07-23T10:26:12.864Z,34.67
2018-07-23T10:27:12.864Z,33.02
2018-07-23T10:28:12.844Z,31.94
2018-07-23T10:29:12.848Z,35.00
2018-07-23T10:30:12.843Z,30.77
2018-07-23T10:31:12.885Z,32.50
2018-07-23T10:32:12.914Z,34.64
2018-07-23T10:33:12.867Z,36.57
2018-07-23T10:34:12.869Z,37.55
2018-07-23T10:35:12.883Z,37.59
2018-07-23T10:36:12.885Z,37.63
2018-07-23T10:37:12.889Z,38.06
2018-07-23T10:38:12.897Z,37.40
2018-07-23T10:39:12.897Z,31.82
2018-07-23T10:40:12.899Z,30.27
2018-07-23T10:41:12.920Z,30.76
2018-07-23T10:42:12.970Z,30.97
2018-07-23T10:43:12.907Z,28.33
2018-07-23T10:44:12.921Z,30.10
2018-07-23T10:45:12.931Z,28.92
2018-07-23T10:46:12.939Z,30.69
2018-07-23T10:47:12.929Z,31.28
2018-07-23T10:48:12.965Z,32.87
2018-07-23T10:49:12.951Z,29.83
2018-07-23T10:50:12.955Z,28.56
2018-07-23T10:51:12.964Z,25.49
2018-07-23T10:52:12.971Z,26.45
2018-07-23T10:53:13.006Z,26.91
2018-07-23T10:54:12.981Z,29.45
2018-07-23T10:55:13.025Z,28.26
2018-07-23T10:56:13.028Z,29.62
2018-07-23T10:57:12.995Z,30.80
2018-07-23T10:58:12.998Z,30.11
2018-07-23T10:59:13.009Z,28.64
2018-07-23T11:00:13.029Z,29.50
2018-07-23T11:01:13.181Z,29.79
2018-07-23T11:02:13.038Z,29.98
2018-07-23T11:03:13.025Z,31.54
2018-07-23T11:04:13.051Z,33.10
2018-07-23T11:05:13.053Z,34.20
2018-07-23T11:06:13.055Z,33.39
2018-07-23T11:07:13.149Z,32.42
2018-07-23T11:08:13.053Z,33.39
2018-07-23T11:09:13.070Z,33.98
2018-07-23T11:10:13.077Z,33.12
2018-07-23T11:11:13.072Z,33.02
2018-07-23T11:12:13.124Z,33.29
2018-07-23T11:13:13.085Z,32.81
2018-07-23T11:14:13.086Z,31.24
2018-07-23T11:15:13.097Z,30.83
2018-07-23T11:16:13.095Z,32.07
2018-07-23T11:17:13.206Z,31.87
2018-07-23T11:18:13.107Z,32.94
2018-07-23T11:19:13.141Z,31.28
2018-07-23T11:20:13.100Z,32.26
2018-07-23T11:21:13.117Z,32.86
2018-07-23T11:22:13.114Z,32.87
2018-07-23T11:23:13.126Z,31.93
2018-07-23T11:24:13.129Z,31.55
2018-07-23T11:25:38.693Z,29.80
2018-07-23T11:26:13.146Z,28.44
2018-07-23T11:27:13.141Z,28.54
2018-07-23T11:28:13.139Z,27.75
2018-07-23T11:29:13.147Z,27.56
2018-07-23T11:30:13.146Z,27.95
2018-07-23T11:31:13.162Z,28.95
2018-07-23T11:32:13.171Z,28.36
2018-07-23T11:33:13.206Z,27.29
2018-07-23T11:34:13.176Z,27.80
2018-07-23T11:35:13.174Z,27.11
2018-07-23T11:36:13.190Z,26.24
2018-07-23T11:37:13.183Z,26.14
2018-07-23T11:38:13.240Z,27.53
2018-07-23T11:39:13.210Z,27.15
2018-07-23T11:40:13.207Z,28.05
2018-07-23T11:41:13.214Z,28.26
2018-07-23T11:42:13.218Z,28.37
2018-07-23T11:43:13.258Z,28.97
2018-07-23T11:44:13.233Z,25.03
2018-07-23T11:45:13.250Z,25.82
2018-07-23T11:46:24.448Z,27.70
2018-07-23T11:47:13.316Z,28.91
2018-07-23T11:48:13.297Z,29.21
2018-07-23T11:49:13.280Z,29.74
2018-07-23T11:50:13.286Z,29.95
2018-07-23T11:51:13.294Z,30.06
2018-07-23T11:52:14.358Z,28.69
2018-07-23T11:53:13.343Z,28.70
2018-07-23T11:54:13.319Z,29.10
2018-07-23T11:55:13.329Z,29.71
2018-07-23T11:56:13.340Z,30.22
2018-07-23T11:57:13.344Z,30.12
2018-07-23T11:58:13.382Z,29.13
2018-07-23T11:59:13.360Z,28.34
2018-07-23T12:00:13.395Z,23.96
2018-07-23T12:01:13.387Z,26.03
2018-07-23T12:02:13.387Z,23.55
2018-07-23T12:03:13.413Z,23.04
2018-07-23T12:04:13.428Z,22.82
2018-07-23T12:05:13.461Z,25.46
2018-07-23T12:06:13.435Z,27.44
2018-07-23T12:07:13.446Z,26.55
2018-07-23T12:08:13.445Z,23.97
2018-07-23T12:09:13.465Z,23.26
2018-07-23T12:10:13.500Z,23.91
2018-07-23T12:11:13.511Z,25.46
2018-07-23T12:12:13.481Z,25.16
2018-07-23T12:13:13.498Z,27.39
2018-07-23T12:14:13.522Z,27.95
2018-07-23T12:15:13.516Z,29.11
2018-07-23T12:16:13.514Z,29.69
2018-07-23T12:17:13.532Z,28.78
2018-07-23T12:18:13.592Z,29.84
2018-07-23T12:19:13.526Z,30.72
2018-07-23T12:20:13.533Z,31.10
2018-07-23T12:21:13.552Z,31.59
2018-07-23T12:22:13.537Z,31.48
2018-07-23T12:23:13.545Z,31.85
2018-07-23T12:24:13.589Z,31.95
2018-07-23T12:25:13.547Z,32.81
2018-07-23T12:26:13.558Z,33.20
2018-07-23T12:27:13.566Z,33.30
2018-07-23T12:28:13.595Z,32.71
2018-07-23T12:29:13.565Z,33.50
2018-07-23T12:30:13.571Z,33.79
2018-07-23T12:31:13.571Z,33.59
2018-07-23T12:32:13.572Z,33.69
2018-07-23T12:33:13.607Z,33.59
2018-07-23T12:34:13.571Z,33.01
2018-07-23T12:35:13.580Z,33.20
2018-07-23T12:36:13.576Z,33.01
2018-07-23T12:37:13.619Z,33.18
2018-07-23T12:38:13.583Z,34.73
2018-07-23T12:39:13.589Z,34.34
2018-07-23T12:40:13.585Z,34.22
2018-07-23T12:41:13.579Z,35.10
2018-07-23T12:42:13.664Z,35.10
2018-07-23T12:43:13.586Z,35.49
2018-07-23T12:44:13.594Z,35.08
2018-07-23T12:45:13.581Z,35.38
2018-07-23T12:46:13.584Z,35.57
2018-07-23T12:47:13.664Z,36.45
2018-07-23T12:48:13.632Z,36.06
2018-07-23T12:49:13.604Z,36.25
2018-07-23T12:50:13.601Z,36.63
2018-07-23T12:51:13.615Z,36.16
2018-07-23T12:52:13.604Z,36.55